createdAt,value
2018-03-02T00:00:39.688Z,20.20
2018-03-02T00:03:07.218Z,20.65
2018-03-02T00:05:35.500Z,20.92
2018-03-02T00:08:03.775Z,19.42
2018-03-02T00:10:32.227Z,15.75
2018-03-02T00:12:59.749Z,24.27
2018-03-02T00:15:27.248Z,26.80
2018-03-02T00:17:54.769Z,25.95
2018-03-02T00:20:22.372Z,21.98
2018-03-02T00:22:49.893Z,22.52
2018-03-02T00:25:17.450Z,23.65
2018-03-02T00:27:45.188Z,25.15
2018-03-02T00:30:12.698Z,26.48
2018-03-02T00:32:40.231Z,26.25
2018-03-02T00:35:07.734Z,29.50
2018-03-02T00:37:35.235Z,27.67
2018-03-02T00:40:02.754Z,32.70
2018-03-02T00:42:30.263Z,28.40
2018-03-02T00:44:57.759Z,24.23
2018-03-02T00:47:25.532Z,27.08
2018-03-02T00:49:53.034Z,20.92
2018-03-02T00:52:20.552Z,21.48
2018-03-02T00:54:48.083Z,20.10
2018-03-02T00:57:15.583Z,28.48
2018-03-02T00:59:43.078Z,29.75
2018-03-02T01:02:10.609Z,17.58
2018-03-02T01:04:38.963Z,29.67
2018-03-02T01:07:06.479Z,24.87
2018-03-02T01:09:34.006Z,29.83
2018-03-02T01:12:02.363Z,28.23
2018-03-02T01:14:29.863Z,25.60
2018-03-02T01:16:57.421Z,21.20
2018-03-02T01:19:24.926Z,28.83
2018-03-02T01:21:52.420Z,19.05
2018-03-02T01:24:19.955Z,28.95
2018-03-02T01:26:47.518Z,28.12
2018-03-02T01:29:15.382Z,22.55
2018-03-02T01:31:42.906Z,24.30
2018-03-02T01:34:10.410Z,21.92
2018-03-02T01:36:37.920Z,35.17
2018-03-02T01:39:05.623Z,24.67
2018-03-02T01:41:33.121Z,25.27
2018-03-02T01:44:00.622Z,23.38
2018-03-02T01:46:28.651Z,32.17
2018-03-02T01:48:56.282Z,27.27
2018-03-02T01:51:35.735Z,24.27
2018-03-02T01:54:03.239Z,21.55
2018-03-02T01:56:30.731Z,22.23
2018-03-02T02:30:40.654Z,21.73
2018-03-02T02:33:08.161Z,27.80
2018-03-02T02:35:35.659Z,27.20
2018-03-02T02:38:03.953Z,24.20
2018-03-02T02:40:31.450Z,25.35
2018-03-02T02:42:58.951Z,24.20
2018-03-02T02:45:27.441Z,25.00
2018-03-02T02:47:54.939Z,28.85
2018-03-02T02:50:23.201Z,25.83
2018-03-02T02:52:50.842Z,30.77
2018-03-02T02:55:18.567Z,28.73
2018-03-02T02:57:46.067Z,28.23
2018-03-02T03:00:13.610Z,24.45
2018-03-02T03:02:41.870Z,28.23
2018-03-02T03:05:09.365Z,25.00
2018-03-02T03:07:37.326Z,28.58
2018-03-02T03:10:04.824Z,20.37
2018-03-02T03:12:32.340Z,21.80
2018-03-02T03:15:00.720Z,22.23
2018-03-02T03:17:28.217Z,19.23
2018-03-02T03:19:56.209Z,25.12
2018-03-02T03:22:24.326Z,27.55
2018-03-02T03:24:51.823Z,30.83
2018-03-02T03:27:19.321Z,26.45
2018-03-02T03:29:46.866Z,27.77
2018-03-02T03:32:14.839Z,23.90
2018-03-02T03:34:42.338Z,26.37
2018-03-02T03:37:10.410Z,28.90
2018-03-02T03:39:37.900Z,29.12
2018-03-02T03:42:05.401Z,22.80
2018-03-02T03:44:32.996Z,19.77
2018-03-02T03:47:00.489Z,26.27
2018-03-02T03:49:27.999Z,26.52
2018-03-02T03:51:55.872Z,28.27
2018-03-02T03:54:23.369Z,26.70
2018-03-02T03:56:50.884Z,24.63
2018-03-02T03:59:19.427Z,24.77
2018-03-02T04:01:47.059Z,17.33
2018-03-02T04:04:14.558Z,26.58
2018-03-02T04:06:42.086Z,19.52
2018-03-02T04:09:09.885Z,25.25
2018-03-02T04:11:37.378Z,22.23
2018-03-02T04:14:04.921Z,22.50
2018-03-02T04:16:33.198Z,31.92
2018-03-02T04:19:01.461Z,25.90
2018-03-02T04:21:29.045Z,31.48
2018-03-02T04:23:57.329Z,22.90
2018-03-02T04:26:24.829Z,34.30
2018-03-02T04:28:53.141Z,32.08
2018-03-02T04:31:20.640Z,25.52
2018-03-02T04:33:48.352Z,23.40
2018-03-02T04:36:15.887Z,29.73
2018-03-02T04:38:43.393Z,29.87
2018-03-02T04:41:11.666Z,28.02
2018-03-02T04:43:40.473Z,25.10
2018-03-02T04:46:09.021Z,26.45
2018-03-02T04:48:36.528Z,22.25
2018-03-02T04:51:04.446Z,25.48
2018-03-02T04:53:31.970Z,25.30
2018-03-02T04:55:59.469Z,28.38
2018-03-02T04:58:27.020Z,28.50
2018-03-02T05:00:54.548Z,24.90
2018-03-02T05:03:22.058Z,19.15
2018-03-02T05:05:49.956Z,21.27
2018-03-02T05:08:17.452Z,28.83
2018-03-02T05:10:45.773Z,23.80
2018-03-02T05:13:14.582Z,26.70
2018-03-02T05:15:42.086Z,21.17
2018-03-02T05:18:09.586Z,23.67
2018-03-02T05:20:37.158Z,21.17
2018-03-02T05:23:04.682Z,20.27
2018-03-02T05:25:32.185Z,22.87
2018-03-02T05:27:59.731Z,27.37
2018-03-02T05:30:27.425Z,27.15
2018-03-02T05:32:54.964Z,25.25
2018-03-02T05:35:23.311Z,22.37
2018-03-02T05:37:50.798Z,23.58
2018-03-02T05:40:18.298Z,22.90
2018-03-02T05:42:45.841Z,21.83
2018-03-02T05:45:13.341Z,21.65
2018-03-02T05:47:40.913Z,32.75
2018-03-02T05:50:08.809Z,24.12
2018-03-02T05:52:36.318Z,27.83
2018-03-02T05:55:03.812Z,24.98
2018-03-02T05:57:31.704Z,29.08
2018-03-02T05:59:59.521Z,31.80
2018-03-02T06:02:27.022Z,29.35
2018-03-02T06:04:54.885Z,25.15
2018-03-02T06:07:22.493Z,28.12
2018-03-02T06:09:50.069Z,30.05
2018-03-02T06:12:17.628Z,25.15
2018-03-02T06:14:45.122Z,24.98
2018-03-02T06:17:13.389Z,17.23
2018-03-02T06:19:42.093Z,27.75
2018-03-02T06:22:09.594Z,26.05
2018-03-02T06:24:37.162Z,30.25
2018-03-02T06:27:04.695Z,23.73
2018-03-02T06:29:32.189Z,28.65
2018-03-02T06:31:59.693Z,26.70
2018-03-02T06:34:27.241Z,31.00
2018-03-02T06:36:55.083Z,33.47
2018-03-02T06:39:22.580Z,23.30
2018-03-02T06:41:50.446Z,25.08
2018-03-02T06:44:17.957Z,24.58
2018-03-02T06:46:45.485Z,29.50
2018-03-02T06:49:13.077Z,24.52
2018-03-02T06:51:40.585Z,23.98
2018-03-02T06:54:08.919Z,31.75
2018-03-02T06:56:36.768Z,21.10
2018-03-02T06:59:04.269Z,24.77
2018-03-02T07:01:31.785Z,25.10
2018-03-02T07:03:59.608Z,31.52
2018-03-02T07:06:27.126Z,27.30
2018-03-02T07:08:55.410Z,37.75
2018-03-02T07:11:23.212Z,39.33
2018-03-02T07:13:51.805Z,29.92
2018-03-02T07:16:19.314Z,36.17
2018-03-02T07:18:48.382Z,29.85
2018-03-02T07:21:15.897Z,33.90
2018-03-02T07:23:43.406Z,33.03
2018-03-02T07:26:11.242Z,36.05
2018-03-02T07:28:38.761Z,28.70
2018-03-02T07:31:06.261Z,26.75
2018-03-02T07:33:34.253Z,36.83
2018-03-02T07:36:01.774Z,28.20
2018-03-02T07:38:29.626Z,33.80
2018-03-02T07:40:57.371Z,27.85
2018-03-02T07:43:25.165Z,34.15
2018-03-02T07:45:53.445Z,25.17
2018-03-02T07:48:21.326Z,34.00
2018-03-02T07:50:49.645Z,36.22
2018-03-02T07:53:17.154Z,36.58
2018-03-02T07:55:45.467Z,32.38
2018-03-02T07:58:13.002Z,28.00
2018-03-02T08:00:41.344Z,22.67
2018-03-02T08:03:09.794Z,25.73
2018-03-02T08:05:37.306Z,34.25
2018-03-02T08:08:04.805Z,32.42
2018-03-02T08:10:32.344Z,37.08
2018-03-02T08:12:59.843Z,23.95
2018-03-02T08:15:27.414Z,32.92
2018-03-02T08:17:55.536Z,27.73
2018-03-02T08:20:23.036Z,33.70
2018-03-02T08:22:50.609Z,29.52
2018-03-02T08:25:18.159Z,28.23
2018-03-02T08:27:49.815Z,28.98
2018-03-02T08:30:17.313Z,21.83
2018-03-02T08:32:45.606Z,32.08
2018-03-02T08:35:13.155Z,26.10
2018-03-02T08:37:41.426Z,27.73
2018-03-02T08:40:10.045Z,31.87
2018-03-02T08:42:37.574Z,31.65
2018-03-02T08:47:19.241Z,30.65
2018-03-02T08:49:48.393Z,33.30
2018-03-02T08:52:18.233Z,28.77
2018-03-02T08:54:46.497Z,28.60
2018-03-02T08:57:16.098Z,35.35
2018-03-02T08:59:45.642Z,33.30
2018-03-02T09:02:15.145Z,29.08
2018-03-02T09:04:44.907Z,28.77
2018-03-02T09:07:14.426Z,27.80
2018-03-02T09:13:26.650Z,33.40
2018-03-02T09:15:54.936Z,31.23
2018-03-02T09:18:23.197Z,35.47
2018-03-02T09:20:51.988Z,33.40
2018-03-02T09:23:20.233Z,30.77
2018-03-02T09:25:48.470Z,30.27
2018-03-02T09:28:16.916Z,31.60
2018-03-02T09:30:45.936Z,34.13
2018-03-02T09:33:14.179Z,35.20
2018-03-02T09:35:42.575Z,30.33
2018-03-02T09:38:10.818Z,34.83
2018-03-02T09:40:40.323Z,39.07
2018-03-02T09:43:09.413Z,28.27
2018-03-02T09:45:37.738Z,37.67
2018-03-02T09:48:05.982Z,33.10
2018-03-02T09:50:35.006Z,29.37
2018-03-02T09:53:03.421Z,33.57
2018-03-02T09:55:31.694Z,32.00
2018-03-02T09:57:59.962Z,31.57
2018-03-02T10:00:28.195Z,32.10
2018-03-02T10:02:56.452Z,31.65
2018-03-02T10:05:24.698Z,34.93
2018-03-02T10:07:52.934Z,33.83
2018-03-02T10:10:21.272Z,31.03
2018-03-02T10:12:49.611Z,29.13
2018-03-02T10:15:17.916Z,32.13
2018-03-02T10:17:46.321Z,32.50
2018-03-02T10:20:14.946Z,29.37
2018-03-02T10:22:43.185Z,35.00
2018-03-02T10:25:12.181Z,32.50
2018-03-02T10:27:40.445Z,35.00
2018-03-02T10:30:09.448Z,31.60
2018-03-02T10:32:38.459Z,37.10
2018-03-02T10:35:07.489Z,38.17
2018-03-02T10:37:35.734Z,31.33
2018-03-02T10:40:03.986Z,31.73
2018-03-02T10:42:33.396Z,30.10
2018-03-02T10:45:01.652Z,31.27
2018-03-02T10:47:29.887Z,32.77
2018-03-02T10:49:58.170Z,32.70
2018-03-02T10:52:26.413Z,35.10
2018-03-02T10:54:55.421Z,30.77
2018-03-02T10:57:23.969Z,28.87
2018-03-02T10:59:52.205Z,28.53
2018-03-02T11:02:21.488Z,29.10
2018-03-02T11:04:49.755Z,30.43
2018-03-02T11:07:18.010Z,28.37
2018-03-02T11:09:46.250Z,34.73
2018-03-02T11:12:14.510Z,28.13
2018-03-02T11:14:42.747Z,33.13
2018-03-02T11:17:10.994Z,28.83
2018-03-02T11:19:39.254Z,32.23
2018-03-02T11:22:07.488Z,30.17
2018-03-02T11:24:35.854Z,33.73
2018-03-02T11:27:05.684Z,34.20
2018-03-02T11:29:33.920Z,34.30
2018-03-02T11:32:02.534Z,31.03
2018-03-02T11:34:31.561Z,27.80
2018-03-02T11:36:59.840Z,27.10
2018-03-02T11:39:28.121Z,34.33
2018-03-02T11:41:56.369Z,36.83
2018-03-02T11:44:24.721Z,31.13
2018-03-02T11:46:53.844Z,35.90
2018-03-02T11:49:22.089Z,31.00
2018-03-02T11:51:50.354Z,29.33
2018-03-02T11:54:19.027Z,96.17
2018-03-02T11:56:47.321Z,47.07
2018-03-02T11:59:15.566Z,27.57
2018-03-02T12:01:43.799Z,34.57
2018-03-02T12:04:15.006Z,29.00
2018-03-02T12:06:43.298Z,33.33
2018-03-02T12:09:11.725Z,35.03
2018-03-02T12:11:40.027Z,38.23
2018-03-02T12:14:08.319Z,34.77
2018-03-02T12:16:36.592Z,31.93
2018-03-02T12:19:04.874Z,35.23
2018-03-02T12:21:33.293Z,29.70
2018-03-02T12:24:02.308Z,28.60
2018-03-02T12:26:30.627Z,36.40
2018-03-02T12:28:58.868Z,28.80
2018-03-02T12:31:27.125Z,31.70
2018-03-02T12:33:55.674Z,33.93
2018-03-02T12:36:23.950Z,27.67
2018-03-02T12:38:52.281Z,32.97
2018-03-02T12:41:21.270Z,37.63
2018-03-02T12:43:49.527Z,30.60
2018-03-02T12:46:18.658Z,28.23
2018-03-02T13:58:39.943Z,34.70
2018-03-02T14:01:08.227Z,29.10
2018-03-02T14:03:48.262Z,33.87
2018-03-02T14:06:17.464Z,35.83
2018-03-02T14:08:46.269Z,38.38
2018-03-02T14:11:14.530Z,34.13
2018-03-02T14:13:43.536Z,34.67
2018-03-02T14:16:11.787Z,36.53
2018-03-02T14:18:40.834Z,35.60
2018-03-02T14:21:09.199Z,36.03
2018-03-02T14:23:37.431Z,39.30
2018-03-02T14:26:06.475Z,31.70
2018-03-02T14:28:34.707Z,36.37
2018-03-02T14:31:03.718Z,34.27
2018-03-02T14:33:32.172Z,32.33
2018-03-02T14:36:00.411Z,39.77
2018-03-02T14:38:28.655Z,38.90
2018-03-02T14:40:56.956Z,36.43
2018-03-02T14:43:25.216Z,40.03
2018-03-02T14:45:53.710Z,27.70
2018-03-02T14:48:21.970Z,35.00
2018-03-02T14:50:50.210Z,32.50
2018-03-02T14:53:18.442Z,31.63
2018-03-02T14:55:46.702Z,43.90
2018-03-02T14:58:14.943Z,30.03
2018-03-02T15:00:43.343Z,33.27
2018-03-02T15:03:12.381Z,36.07
2018-03-02T15:05:40.621Z,29.47
2018-03-02T15:08:08.869Z,35.67
2018-03-02T15:10:37.514Z,35.90
2018-03-02T15:13:05.756Z,36.67
2018-03-02T15:15:34.759Z,31.87
2018-03-02T15:18:03.038Z,39.10
2018-03-02T15:20:31.432Z,33.50
2018-03-02T15:22:59.673Z,29.60
2018-03-02T15:25:28.197Z,37.97
2018-03-02T15:27:56.448Z,35.57
2018-03-02T15:30:25.460Z,34.17
2018-03-02T15:32:53.725Z,44.30
2018-03-02T15:35:22.066Z,31.17
2018-03-02T15:37:50.363Z,29.13
2018-03-02T15:40:18.651Z,32.70
2018-03-02T15:42:47.921Z,28.83
2018-03-02T15:45:16.525Z,30.63
2018-03-02T17:09:42.906Z,30.60
2018-03-02T17:12:11.162Z,36.03
2018-03-02T17:14:39.654Z,35.60
2018-03-02T17:17:07.961Z,36.25
2018-03-02T17:19:36.210Z,34.88
2018-03-02T17:22:04.472Z,42.17
2018-03-02T17:24:32.777Z,41.07
2018-03-02T17:27:01.080Z,34.73
2018-03-02T17:29:29.317Z,43.80
2018-03-02T17:31:57.605Z,40.08
2018-03-02T17:34:26.013Z,37.40
2018-03-02T17:36:54.253Z,41.80
2018-03-02T17:39:22.526Z,40.30
2018-03-02T17:41:51.550Z,39.70
2018-03-02T17:44:20.587Z,42.75
2018-03-02T17:46:48.865Z,37.03
2018-03-02T17:49:17.114Z,34.83
2018-03-02T17:51:45.360Z,33.67
2018-03-02T17:54:13.641Z,38.90
2018-03-02T17:56:41.908Z,37.40
2018-03-02T17:59:10.157Z,38.95
2018-03-02T18:01:38.426Z,37.97
2018-03-02T18:04:06.679Z,39.65
2018-03-02T18:06:34.934Z,33.72
2018-03-02T18:09:03.205Z,40.25
2018-03-02T18:11:31.804Z,31.70
2018-03-02T18:14:00.959Z,37.30
2018-03-02T18:16:29.242Z,37.45
2018-03-02T18:18:57.495Z,34.03
2018-03-02T18:21:25.748Z,35.45
2018-03-02T18:23:54.782Z,45.63
2018-03-02T18:26:23.035Z,36.90
2018-03-02T18:28:51.285Z,33.72
2018-03-02T18:31:20.329Z,34.53
2018-03-02T18:33:48.582Z,34.55
2018-03-02T18:36:17.042Z,38.85
2018-03-02T18:38:46.086Z,35.00
2018-03-02T18:41:14.331Z,39.40
2018-03-02T18:43:42.658Z,38.70
2018-03-02T18:46:10.988Z,38.28
2018-03-02T18:48:40.174Z,40.53
2018-03-02T18:51:09.187Z,38.53
2018-03-02T18:53:37.446Z,39.00
2018-03-02T18:56:05.709Z,36.10
2018-03-02T18:58:34.840Z,42.45
2018-03-02T19:01:03.121Z,39.15
2018-03-02T19:03:31.384Z,35.00
2018-03-02T19:05:59.633Z,44.70
2018-03-02T19:08:27.915Z,36.05
2018-03-02T19:10:56.920Z,39.05
2018-03-02T19:13:25.602Z,29.42
2018-03-02T19:15:54.652Z,43.78
2018-03-02T19:18:22.910Z,38.63
2018-03-02T19:20:51.171Z,39.97
2018-03-02T19:23:19.466Z,35.65
2018-03-02T19:25:47.714Z,37.15
2018-03-02T19:28:15.965Z,37.85
2018-03-02T19:30:44.250Z,36.28
2018-03-02T19:33:13.906Z,33.80
2018-03-02T19:35:42.165Z,35.90
2018-03-02T19:38:10.457Z,34.78
2018-03-02T19:40:38.702Z,34.70
2018-03-02T19:43:07.817Z,29.37
2018-03-02T19:45:36.105Z,43.40
2018-03-02T19:48:04.357Z,33.92
2018-03-02T19:50:33.377Z,38.97
2018-03-02T19:53:01.659Z,42.45
2018-03-02T19:55:29.905Z,34.22
2018-03-02T19:57:58.167Z,39.50
2018-03-02T20:00:26.473Z,36.90
2018-03-02T20:02:54.921Z,33.22
2018-03-02T20:05:23.175Z,41.13
2018-03-02T20:07:51.465Z,43.40
2018-03-02T20:10:19.718Z,42.47
2018-03-02T20:12:48.382Z,40.20
2018-03-02T20:15:18.017Z,38.88
2018-03-02T20:17:46.304Z,39.05
2018-03-02T20:20:14.801Z,33.67
2018-03-02T20:22:43.902Z,32.90
2018-03-02T20:25:12.150Z,36.10
2018-03-02T20:27:40.574Z,35.60
2018-03-02T20:30:09.858Z,37.50
2018-03-02T20:32:39.144Z,38.95
2018-03-02T20:35:08.515Z,42.30
2018-03-02T20:37:37.111Z,35.45
2018-03-02T20:40:06.259Z,40.17
2018-03-02T20:42:34.513Z,38.60
2018-03-02T20:45:03.036Z,41.47
2018-03-02T20:47:31.294Z,38.53
2018-03-02T20:50:00.412Z,38.80
2018-03-02T20:52:29.019Z,33.78
2018-03-02T20:54:57.494Z,38.92
2018-03-02T20:57:26.117Z,36.92
2018-03-02T20:59:54.858Z,36.53
2018-03-02T21:02:23.142Z,41.33
2018-03-02T21:04:51.518Z,44.88
2018-03-02T21:07:20.167Z,41.13
2018-03-02T21:09:48.425Z,41.65
2018-03-02T21:12:16.843Z,34.92
2018-03-02T21:14:45.108Z,40.70
2018-03-02T21:17:14.820Z,42.45
2018-03-02T21:19:44.071Z,36.42
2018-03-02T21:22:12.461Z,38.28
2018-03-02T21:24:40.919Z,44.78
2018-03-02T21:27:09.237Z,41.58
2018-03-02T21:29:37.550Z,45.25
2018-03-02T21:32:06.561Z,41.03
2018-03-02T21:34:34.854Z,39.17
2018-03-02T21:37:03.193Z,41.95
2018-03-02T21:39:32.197Z,41.15
2018-03-02T21:42:00.787Z,43.85
2018-03-02T21:44:29.317Z,40.85
2018-03-02T21:46:57.711Z,38.42
2018-03-02T21:49:26.142Z,38.90
2018-03-02T21:51:54.493Z,41.03
2018-03-02T21:54:22.948Z,43.53
2018-03-02T21:56:51.391Z,37.45
2018-03-02T21:59:19.684Z,44.17
2018-03-02T22:01:47.959Z,40.60
2018-03-02T22:04:16.200Z,39.10
2018-03-02T22:06:45.066Z,40.60
2018-03-02T22:09:13.679Z,48.80
2018-03-02T22:11:41.949Z,37.40
2018-03-02T22:14:10.945Z,40.35
2018-03-02T22:16:39.234Z,45.78
2018-03-02T22:19:07.669Z,48.00
2018-03-02T22:21:35.932Z,39.03
2018-03-02T22:24:04.190Z,44.08
2018-03-02T22:26:32.575Z,39.58
2018-03-02T22:29:00.830Z,45.70
2018-03-02T22:31:29.540Z,43.33
2018-03-02T22:33:58.553Z,44.70
2018-03-02T22:36:26.817Z,46.80
2018-03-02T22:38:55.061Z,46.20
2018-03-02T22:41:23.317Z,46.33
2018-03-02T22:43:52.363Z,49.97
2018-03-02T22:46:20.607Z,44.38
2018-03-02T22:48:48.870Z,41.10
2018-03-02T22:51:17.146Z,39.83
2018-03-02T22:53:46.173Z,42.35
2018-03-02T22:56:14.425Z,49.60
2018-03-02T22:58:42.704Z,46.65
2018-03-02T23:01:11.081Z,49.40
2018-03-02T23:03:39.345Z,47.67
2018-03-02T23:06:08.379Z,42.88
2018-03-02T23:08:37.346Z,45.92
2018-03-02T23:11:05.959Z,45.78
2018-03-02T23:13:34.229Z,47.58
2018-03-02T23:16:02.486Z,43.42
2018-03-02T23:18:30.742Z,42.58
2018-03-02T23:20:59.926Z,42.30
2018-03-02T23:23:28.178Z,39.05
2018-03-02T23:25:56.685Z,50.60
2018-03-02T23:28:24.957Z,46.35
2018-03-02T23:30:53.221Z,48.45
2018-03-02T23:33:21.455Z,47.62
2018-03-02T23:35:49.720Z,48.65
2018-03-02T23:38:17.979Z,40.97
2018-03-02T23:40:46.239Z,53.92
2018-03-02T23:43:14.497Z,48.30
2018-03-02T23:45:43.663Z,46.67
2018-03-02T23:48:11.924Z,50.12
2018-03-02T23:50:40.982Z,45.40
2018-03-02T23:53:09.229Z,48.90
2018-03-02T23:55:37.469Z,42.33
2018-03-02T23:58:05.914Z,50.05
